Flugplatz Lübeck Blankensee

Bericht für EDHL

vom 23.01. um 15:20 UTC

Wind 2 kt aus 50°

Sichtweite 7000 m

keine Wolken

Temperatur -5.0°C

Taupunkt -7.0°C

Luftfeuchtigkeit 86%

Luftdruck 1005 hPa

EDHL 231520Z 05002KT 7000 NSC M05/M07 Q1005

Prognose für EDHL

vom 23.01. um 14:00 UTC

Zwischen 15:00 UTC und 21:00 UTC zeitweise

Sichtweite 4000 m

feuchter Dunst


Zwischen 15:00 UTC und 21:00 UTC

Wind 6 kt aus 90°

Sichtweite 7000 m

keine Wolken


Zwischen 17:00 UTC und 21:00 UTC zeitweise

aufgebrochene Bewölkung in 900 ft

TAF EDHL 231400Z 2315/2321 09006KT 7000 NSC TEMPO 2315/2321 4000 BR TEMPO 2317/2321 BKN009
Impressum